Time;durP1;ratioP1;P1;durP2;ratioP2;P2;SDS_P1;SDS_P2;PMS_P1;PMS_P2;Temp;Humidity;BMP_temperature;BMP_pressure;BME280_temperature;BME280_humidity;BME280_pressure;Samples;Min_cycle;Max_cycle;Signal;HPM_P1;HPM_P2
2022/10/02 00:02:31;;;;;;;3.88;2.20;;;11.50;99.90;;;;;;8258047;28;20037;-79
2022/10/02 00:06:44;;;;;;;3.03;2.05;;;11.40;99.90;;;;;;8260176;28;20030;-78
2022/10/02 00:10:58;;;;;;;2.65;2.10;;;11.30;99.90;;;;;;8263774;28;20061;-77
2022/10/02 00:15:05;;;;;;;6.80;1.90;;;11.40;99.90;;;;;;8263391;28;20038;-78
2022/10/02 00:19:08;;;;;;;3.25;2.05;;;11.40;99.90;;;;;;8262957;28;20030;-79
2022/10/02 00:23:20;;;;;;;3.15;1.70;;;11.30;99.90;;;;;;8256397;28;20545;-78
2022/10/02 00:27:43;;;;;;;6.82;1.98;;;11.40;99.90;;;;;;8258154;28;20029;-78
2022/10/02 00:32:05;;;;;;;3.00;1.50;;;11.40;99.90;;;;;;8258002;28;20117;-78
2022/10/02 00:36:06;;;;;;;2.55;1.48;;;11.50;99.90;;;;;;8264207;28;20037;-79
2022/10/02 00:40:32;;;;;;;3.33;1.33;;;11.50;99.90;;;;;;8264054;28;20493;-79
2022/10/02 00:44:43;;;;;;;4.68;1.50;;;11.50;99.90;;;;;;8263729;28;20030;-77
2022/10/02 00:49:03;;;;;;;3.00;1.60;;;11.80;99.90;;;;;;8263043;28;20042;-78
2022/10/02 00:53:11;;;;;;;1.77;1.20;;;11.90;99.90;;;;;;8262661;28;20375;-79
2022/10/02 00:57:25;;;;;;;2.88;1.30;;;11.90;99.90;;;;;;8262786;28;20034;-78
2022/10/02 01:01:40;;;;;;;2.63;1.40;;;12.00;99.90;;;;;;8256189;28;20058;-79
2022/10/02 01:05:41;;;;;;;1.80;1.05;;;11.90;99.90;;;;;;8259379;28;20023;-79
2022/10/02 01:09:44;;;;;;;4.68;1.42;;;11.90;99.90;;;;;;8263077;28;20410;-78
2022/10/02 01:13:44;;;;;;;2.83;1.00;;;12.00;99.90;;;;;;8261851;28;20033;-79
2022/10/02 01:17:52;;;;;;;2.42;1.10;;;12.00;99.90;;;;;;8263107;28;20026;-79
2022/10/02 01:22:02;;;;;;;3.38;1.30;;;12.10;99.90;;;;;;8262859;28;20019;-80
2022/10/02 01:26:03;;;;;;;5.80;1.35;;;12.10;99.90;;;;;;8261407;28;20014;-80
2022/10/02 01:30:14;;;;;;;3.60;1.48;;;12.10;99.90;;;;;;8261267;28;20670;-79
2022/10/02 01:34:15;;;;;;;2.78;1.27;;;12.10;99.90;;;;;;8261033;28;20022;-78
2022/10/02 01:38:19;;;;;;;5.30;1.50;;;12.00;99.90;;;;;;8260792;28;20058;-79
2022/10/02 01:42:20;;;;;;;6.35;1.70;;;12.00;99.90;;;;;;8260056;28;20410;-79
2022/10/02 01:46:54;;;;;;;4.13;1.58;;;12.00;99.90;;;;;;8260695;28;20085;-78
2022/10/02 01:51:28;;;;;;;5.70;2.00;;;12.00;99.90;;;;;;8259056;28;20022;-79
2022/10/02 01:55:59;;;;;;;5.90;1.55;;;12.10;99.90;;;;;;8260445;28;20031;-78
2022/10/02 02:00:07;;;;;;;4.72;1.30;;;12.10;99.90;;;;;;8260770;28;20037;-78
2022/10/02 02:04:37;;;;;;;5.47;1.60;;;12.30;99.90;;;;;;8257829;28;20026;-78
2022/10/02 02:09:16;;;;;;;4.35;1.85;;;12.30;99.90;;;;;;8260976;28;20030;-78
2022/10/02 02:13:30;;;;;;;4.38;1.70;;;12.30;99.90;;;;;;8246378;28;20030;-78
2022/10/02 02:17:45;;;;;;;2.42;1.98;;;12.40;99.90;;;;;;8260176;28;20038;-78
2022/10/02 02:21:51;;;;;;;5.60;2.33;;;12.40;99.90;;;;;;8268386;28;20432;-78
2022/10/02 02:25:59;;;;;;;2.58;2.17;;;12.30;99.90;;;;;;8266952;28;20113;-78
2022/10/02 02:30:05;;;;;;;5.68;2.20;;;12.30;99.90;;;;;;8267029;28;20026;-78
2022/10/02 02:34:11;;;;;;;5.70;2.22;;;12.30;99.90;;;;;;8266492;28;20482;-78
2022/10/02 02:38:23;;;;;;;3.50;2.35;;;12.40;99.90;;;;;;8260300;28;20077;-78
2022/10/02 02:42:29;;;;;;;7.47;2.05;;;12.40;99.90;;;;;;8266351;28;20030;-78
2022/10/02 02:47:03;;;;;;;3.95;2.15;;;12.50;99.90;;;;;;8267310;28;20082;-78
2022/10/02 02:51:14;;;;;;;5.68;2.50;;;12.50;99.90;;;;;;8266668;28;20068;-79
2022/10/02 02:55:26;;;;;;;5.15;2.45;;;12.40;99.90;;;;;;8265821;28;20088;-78
2022/10/02 02:59:30;;;;;;;4.88;2.60;;;12.50;99.90;;;;;;8265163;28;20030;-78
2022/10/02 03:03:31;;;;;;;5.60;2.72;;;12.50;99.90;;;;;;8264724;28;20025;-77
2022/10/02 03:07:32;;;;;;;4.32;2.60;;;12.50;99.90;;;;;;8264065;28;20023;-79
2022/10/02 03:11:50;;;;;;;5.53;2.42;;;12.60;99.90;;;;;;8265506;28;20038;-77
2022/10/02 03:16:15;;;;;;;5.65;2.40;;;12.70;99.90;;;;;;8264882;28;20034;-78
2022/10/02 03:20:25;;;;;;;4.57;2.30;;;12.60;99.90;;;;;;8265061;28;20065;-78
2022/10/02 03:24:48;;;;;;;4.93;2.20;;;12.70;99.90;;;;;;8258041;28;20367;-79
2022/10/02 03:28:53;;;;;;;8.43;2.33;;;12.70;99.90;;;;;;8263966;28;20061;-78
2022/10/02 03:32:59;;;;;;;4.07;1.85;;;12.70;99.90;;;;;;8266134;28;20036;-78
2022/10/02 03:37:01;;;;;;;3.72;1.95;;;12.70;99.90;;;;;;8260736;28;20029;-79
2022/10/02 03:41:02;;;;;;;6.40;2.30;;;12.80;99.90;;;;;;8264080;28;20031;-78
2022/10/02 03:45:03;;;;;;;6.75;2.00;;;12.70;99.90;;;;;;8264606;28;20076;-79
2022/10/02 03:49:04;;;;;;;3.90;1.63;;;12.70;99.90;;;;;;8265367;28;20553;-79
2022/10/02 03:53:16;;;;;;;4.38;1.73;;;12.80;99.90;;;;;;8265633;28;20101;-79
2022/10/02 03:57:22;;;;;;;6.80;1.80;;;12.70;99.90;;;;;;8264029;28;20030;-79
2022/10/02 04:01:28;;;;;;;5.63;1.30;;;12.70;99.90;;;;;;8263747;28;20053;-79
2022/10/02 04:05:41;;;;;;;7.63;1.70;;;12.70;99.90;;;;;;8263880;28;20434;-80
2022/10/02 04:09:49;;;;;;;3.85;1.45;;;12.60;99.90;;;;;;8258293;28;20053;-78
2022/10/02 04:13:58;;;;;;;6.32;1.42;;;12.70;99.90;;;;;;8263688;28;20514;-79
2022/10/02 04:18:10;;;;;;;5.22;1.60;;;12.80;99.90;;;;;;8264940;28;20031;-78
2022/10/02 04:22:38;;;;;;;2.78;1.65;;;12.70;99.90;;;;;;8265196;28;20402;-79
2022/10/02 04:26:47;;;;;;;4.82;1.50;;;12.80;99.90;;;;;;8258500;28;20537;-78
2022/10/02 04:30:52;;;;;;;5.18;1.90;;;12.70;99.90;;;;;;8263812;28;20022;-79
2022/10/02 04:34:53;;;;;;;3.65;1.65;;;12.70;99.90;;;;;;8258613;28;20027;-80
2022/10/02 04:39:30;;;;;;;5.13;1.77;;;12.70;99.90;;;;;;8249210;28;20022;-80
2022/10/02 04:43:51;;;;;;;5.45;1.95;;;12.70;99.90;;;;;;8252820;28;20039;-78
2022/10/02 04:48:03;;;;;;;;;;;12.70;99.90;;;;;;8263545;28;20022;-80
2022/10/02 04:52:32;;;;;;;4.88;1.65;;;12.70;99.90;;;;;;8258898;28;19910;-79
2022/10/02 04:56:54;;;;;;;4.13;1.50;;;12.80;99.90;;;;;;8253516;28;20030;-78
2022/10/02 05:01:06;;;;;;;4.32;1.70;;;12.80;99.90;;;;;;8255759;28;20034;-78
2022/10/02 05:05:25;;;;;;;4.07;1.55;;;12.80;99.90;;;;;;8257298;28;20447;-78
2022/10/02 05:09:47;;;;;;;6.22;1.80;;;12.80;99.90;;;;;;8258226;28;20022;-79
2022/10/02 05:13:53;;;;;;;6.47;1.83;;;12.80;99.90;;;;;;8257903;28;20426;-78
2022/10/02 05:18:16;;;;;;;8.02;2.10;;;12.80;99.90;;;;;;8249923;28;20402;-79
2022/10/02 05:22:52;;;;;;;4.95;2.08;;;12.90;99.90;;;;;;8255816;28;20030;-78
2022/10/02 05:27:13;;;;;;;6.15;2.17;;;12.70;99.90;;;;;;8229939;28;20031;-79
2022/10/02 05:31:32;;;;;;;6.60;2.45;;;12.50;99.90;;;;;;8261850;28;20057;-79
2022/10/02 05:35:46;;;;;;;9.05;2.20;;;12.50;99.90;;;;;;8260741;28;20089;-80
2022/10/02 05:40:07;;;;;;;4.50;2.28;;;12.50;99.90;;;;;;8259760;28;20022;-80
2022/10/02 05:44:13;;;;;;;2.92;1.85;;;12.60;99.90;;;;;;8259677;28;20018;-79
2022/10/02 05:48:28;;;;;;;4.75;2.00;;;12.70;99.90;;;;;;8257214;28;20038;-79
2022/10/02 05:52:36;;;;;;;3.58;2.00;;;12.70;99.90;;;;;;8259384;28;20034;-79
2022/10/02 05:56:46;;;;;;;4.70;2.13;;;12.70;99.90;;;;;;8259733;28;20093;-79
2022/10/02 06:00:57;;;;;;;3.50;1.70;;;12.90;99.90;;;;;;8262072;28;20036;-79
2022/10/02 06:05:42;;;;;;;4.25;1.85;;;12.90;99.90;;;;;;8261100;28;20026;-80
2022/10/02 06:09:57;;;;;;;6.70;1.60;;;12.90;99.90;;;;;;8249620;28;20065;-79
2022/10/02 06:14:17;;;;;;;7.82;1.42;;;13.10;99.90;;;;;;8260743;28;20498;-79
2022/10/02 06:18:22;;;;;;;5.30;1.58;;;13.20;99.90;;;;;;8259118;28;20026;-79
2022/10/02 06:22:38;;;;;;;8.48;1.35;;;13.10;99.90;;;;;;8260488;28;20057;-79
2022/10/02 06:26:51;;;;;;;3.28;1.70;;;13.10;99.90;;;;;;8252286;28;20022;-79
2022/10/02 06:30:59;;;;;;;3.97;1.50;;;13.10;99.90;;;;;;8251776;28;20035;-78
2022/10/02 06:35:05;;;;;;;7.00;1.58;;;13.10;99.90;;;;;;8249864;28;20118;-79
2022/10/02 06:39:33;;;;;;;6.60;1.63;;;13.20;99.90;;;;;;8254948;28;20517;-79
2022/10/02 06:43:51;;;;;;;2.42;1.10;;;13.40;99.90;;;;;;8254989;28;20050;-78
2022/10/02 06:47:58;;;;;;;3.30;1.17;;;13.50;99.90;;;;;;8256514;28;20441;-78
2022/10/02 06:52:01;;;;;;;4.75;1.50;;;13.60;99.90;;;;;;8260344;28;20025;-78
2022/10/02 06:56:30;;;;;;;4.72;1.15;;;13.60;99.90;;;;;;8259058;28;20025;-79
2022/10/02 07:00:39;;;;;;;4.30;1.30;;;13.70;99.90;;;;;;8259515;28;20034;-79
2022/10/02 07:05:21;;;;;;;6.43;1.30;;;13.90;99.90;;;;;;8256798;28;20015;-79
2022/10/02 07:09:34;;;;;;;2.20;0.90;;;14.20;99.90;;;;;;8229547;28;20030;-79
2022/10/02 07:13:52;;;;;;;1.52;1.00;;;14.30;99.90;;;;;;8259604;28;20051;-78
2022/10/02 07:17:58;;;;;;;2.15;1.00;;;14.50;99.90;;;;;;8264716;28;20045;-79
2022/10/02 07:22:20;;;;;;;1.25;0.80;;;14.70;99.90;;;;;;8264967;28;20550;-79
2022/10/02 07:26:30;;;;;;;2.45;1.20;;;15.00;99.90;;;;;;8261462;28;20032;-78
2022/10/02 07:30:41;;;;;;;2.40;0.80;;;15.30;99.90;;;;;;8253363;28;20034;-79
2022/10/02 07:35:07;;;;;;;3.47;1.23;;;15.50;99.90;;;;;;8261674;28;20023;-79
2022/10/02 07:39:41;;;;;;;4.95;1.38;;;15.60;99.90;;;;;;8272065;28;20034;-79
2022/10/02 07:44:08;;;;;;;4.22;0.90;;;15.80;99.90;;;;;;8259027;28;20113;-79
2022/10/02 07:48:31;;;;;;;4.13;1.17;;;15.70;99.90;;;;;;8250919;28;20501;-79
2022/10/02 07:52:56;;;;;;;2.17;0.85;;;15.80;99.90;;;;;;8256196;28;20033;-79
2022/10/02 07:57:06;;;;;;;3.97;1.30;;;16.10;99.90;;;;;;8256097;28;20109;-79
2022/10/02 08:01:15;;;;;;;2.70;1.20;;;16.10;99.90;;;;;;8261006;28;20031;-79
2022/10/02 08:05:37;;;;;;;4.63;1.33;;;16.30;99.90;;;;;;8263201;28;20053;-78
2022/10/02 08:09:49;;;;;;;4.53;1.15;;;16.40;99.90;;;;;;8256162;28;20565;-78
2022/10/02 08:14:24;;;;;;;4.22;1.23;;;16.60;99.90;;;;;;8255198;28;20116;-78
2022/10/02 08:19:21;;;;;;;3.60;1.17;;;16.80;99.90;;;;;;8254738;28;20068;-78
2022/10/02 08:23:36;;;;;;;1.15;0.95;;;16.70;99.90;;;;;;8235185;28;20069;-78
2022/10/02 08:27:55;;;;;;;5.30;1.13;;;16.80;99.90;;;;;;8251118;28;20171;-79
2022/10/02 08:31:55;;;;;;;6.68;1.10;;;16.90;99.90;;;;;;8253878;28;20038;-79
2022/10/02 08:36:34;;;;;;;1.88;1.00;;;16.70;99.90;;;;;;8258938;28;20561;-78
2022/10/02 08:41:14;;;;;;;1.77;0.95;;;16.70;99.90;;;;;;8204510;28;20414;-80
2022/10/02 08:46:00;;;;;;;1.60;0.77;;;16.90;99.90;;;;;;8257003;28;20064;-79
2022/10/02 08:50:04;;;;;;;3.60;0.95;;;17.30;99.90;;;;;;8254544;28;20023;-78
2022/10/02 08:54:22;;;;;;;1.48;0.75;;;17.60;99.90;;;;;;8260486;28;20034;-79
2022/10/02 08:59:10;;;;;;;2.30;0.85;;;17.70;99.90;;;;;;8260740;28;20041;-85
2022/10/02 09:03:47;;;;;;;2.25;0.52;;;17.80;99.90;;;;;;8260925;28;20430;-86
2022/10/02 09:08:43;;;;;;;1.98;0.90;;;17.50;99.90;;;;;;8256919;28;20019;-85
2022/10/02 09:12:57;;;;;;;2.60;0.60;;;17.60;99.90;;;;;;8259110;28;20118;-84
2022/10/02 09:17:09;;;;;;;1.00;0.55;;;17.60;99.90;;;;;;8263137;28;20034;-85
2022/10/02 09:21:17;;;;;;;3.03;0.68;;;17.90;99.90;;;;;;8262651;28;20062;-86
2022/10/02 09:25:41;;;;;;;1.67;0.60;;;18.40;99.90;;;;;;8263333;28;20069;-86
2022/10/02 09:30:02;;;;;;;1.30;0.50;;;18.70;99.90;;;;;;8245363;28;20117;-87
2022/10/02 09:34:46;;;;;;;0.90;0.50;;;19.20;99.90;;;;;;8256898;28;20034;-85
2022/10/02 09:38:46;;;;;;;0.47;0.40;;;19.30;99.90;;;;;;8244550;28;20062;-88
2022/10/02 09:43:06;;;;;;;0.55;0.55;;;19.40;99.90;;;;;;8256721;28;20050;-87
2022/10/02 09:47:44;;;;;;;1.85;0.50;;;19.50;99.90;;;;;;8256500;28;20453;-86
2022/10/02 09:52:06;;;;;;;0.73;0.30;;;20.00;99.90;;;;;;8261301;28;20026;-81
2022/10/02 09:56:22;;;;;;;0.38;0.38;;;20.60;99.90;;;;;;8260306;28;20031;-82
2022/10/02 10:00:25;;;;;;;0.80;0.57;;;20.20;99.90;;;;;;8256566;28;20508;-82
2022/10/02 10:04:51;;;;;;;0.65;0.40;;;20.40;99.90;;;;;;8258850;28;20031;-81
2022/10/02 10:09:43;;;;;;;2.65;0.30;;;20.60;99.90;;;;;;8255597;28;20494;-82
2022/10/02 10:14:02;;;;;;;0.47;0.40;;;21.20;99.90;;;;;;8241236;28;20057;-80
2022/10/02 10:18:41;;;;;;;1.00;0.38;;;22.10;99.90;;;;;;8260823;28;20030;-80
2022/10/02 10:23:11;;;;;;;0.30;0.30;;;22.00;99.90;;;;;;8256115;28;20022;-82
2022/10/02 10:27:54;;;;;;;0.95;0.55;;;22.60;99.90;;;;;;8260547;28;20100;-81
2022/10/02 10:32:19;;;;;;;0.30;0.30;;;22.80;99.90;;;;;;8257931;28;20018;-80
2022/10/02 10:41:10;;;;;;;0.28;0.28;;;23.00;99.90;;;;;;8258732;28;20103;-81
2022/10/02 10:45:17;;;;;;;;;;;22.60;99.90;;;;;;8261692;28;20027;-81
2022/10/02 10:49:26;;;;;;;0.63;0.30;;;22.30;99.90;;;;;;8252246;28;19917;-81
2022/10/02 10:53:43;;;;;;;0.55;0.40;;;21.20;99.90;;;;;;8265117;28;20026;-81
2022/10/02 10:58:05;;;;;;;0.40;0.40;;;21.10;99.90;;;;;;8256325;28;20559;-80
2022/10/02 11:02:35;;;;;;;0.40;0.40;;;21.10;99.90;;;;;;8261639;28;20088;-80
2022/10/02 11:07:14;;;;;;;0.40;0.30;;;21.30;99.90;;;;;;8258493;28;20364;-80
2022/10/02 11:11:25;;;;;;;0.35;0.35;;;22.40;99.90;;;;;;8262198;28;20046;-80
2022/10/02 11:15:32;;;;;;;0.45;0.40;;;21.80;99.90;;;;;;8266079;28;20610;-80
2022/10/02 11:19:50;;;;;;;0.20;0.20;;;21.70;99.90;;;;;;8253295;28;20030;-80
2022/10/02 11:24:13;;;;;;;2.30;0.35;;;22.40;99.90;;;;;;8261875;28;20498;-80
2022/10/02 11:28:50;;;;;;;0.30;0.30;;;22.70;99.90;;;;;;8261402;28;20026;-80
2022/10/02 11:33:02;;;;;;;0.40;0.40;;;22.40;99.90;;;;;;8258801;28;20379;-80
2022/10/02 11:37:37;;;;;;;0.30;0.30;;;21.60;99.90;;;;;;8257955;28;20077;-81
2022/10/02 11:42:18;;;;;;;0.75;0.30;;;21.20;99.90;;;;;;8239078;28;20042;-82
2022/10/02 11:46:38;;;;;;;2.38;0.40;;;20.80;99.90;;;;;;8262400;28;20037;-79
2022/10/02 11:50:56;;;;;;;0.20;0.20;;;21.00;99.90;;;;;;8263726;28;20053;-81
2022/10/02 11:55:08;;;;;;;0.30;0.30;;;21.00;99.90;;;;;;8263887;28;20050;-78
2022/10/02 11:59:43;;;;;;;1.98;0.40;;;19.70;99.90;;;;;;8265021;28;20053;-81
2022/10/02 12:04:17;;;;;;;0.68;0.30;;;19.00;99.90;;;;;;8261984;28;20490;-80
2022/10/02 12:08:52;;;;;;;0.95;0.50;;;18.10;99.90;;;;;;8261775;28;20081;-79
2022/10/02 12:13:14;;;;;;;0.50;0.50;;;17.80;99.90;;;;;;8261042;28;20031;-79
2022/10/02 12:17:43;;;;;;;1.20;0.40;;;17.80;99.90;;;;;;8262418;28;20034;-80
2022/10/02 12:27:03;;;;;;;1.23;0.30;;;18.00;99.90;;;;;;8262268;28;20046;-80
2022/10/02 12:31:44;;;;;;;1.67;0.38;;;18.10;99.90;;;;;;8261947;28;20028;-81
2022/10/02 12:36:12;;;;;;;0.43;0.30;;;18.50;99.90;;;;;;8205772;28;20399;-80
2022/10/02 12:40:31;;;;;;;0.63;0.30;;;19.10;99.90;;;;;;8255493;28;20022;-81
2022/10/02 12:45:06;;;;;;;0.40;0.40;;;19.30;99.90;;;;;;8252466;28;20023;-81
2022/10/02 12:49:47;;;;;;;0.40;0.32;;;19.20;99.90;;;;;;8257754;28;20108;-80
2022/10/02 12:54:32;;;;;;;0.40;0.40;;;18.90;99.90;;;;;;8241651;28;20072;-81
2022/10/02 12:59:07;;;;;;;0.47;0.38;;;18.80;99.90;;;;;;8246062;28;20041;-80
2022/10/02 13:03:38;;;;;;;0.40;0.40;;;18.60;99.90;;;;;;8256168;28;20072;-80
2022/10/02 13:07:54;;;;;;;0.55;0.40;;;18.30;99.90;;;;;;8250719;28;20030;-80
2022/10/02 13:12:14;;;;;;;0.82;0.50;;;18.00;99.90;;;;;;8251769;28;20033;-80
2022/10/02 13:16:27;;;;;;;0.77;0.55;;;17.90;99.90;;;;;;8253583;28;20109;-81
2022/10/02 13:20:38;;;;;;;0.77;0.50;;;17.90;99.90;;;;;;8254640;28;20030;-81
2022/10/02 13:25:16;;;;;;;0.90;0.45;;;17.80;99.90;;;;;;8258342;28;20512;-81
2022/10/02 13:29:31;;;;;;;0.65;0.50;;;17.70;99.90;;;;;;8252806;28;20483;-82
2022/10/02 13:33:47;;;;;;;0.40;0.40;;;17.50;99.90;;;;;;8246916;28;20034;-82
2022/10/02 13:38:09;;;;;;;0.95;0.50;;;17.50;99.90;;;;;;8251393;28;20037;-81
2022/10/02 13:42:45;;;;;;;0.40;0.40;;;18.60;99.90;;;;;;8259117;28;20032;-81
2022/10/02 13:47:04;;;;;;;0.38;0.30;;;20.20;99.90;;;;;;8254870;28;20648;-81
2022/10/02 13:51:32;;;;;;;0.52;0.32;;;20.40;99.90;;;;;;8252499;28;20030;-81
2022/10/02 13:55:52;;;;;;;0.40;0.40;;;20.90;99.90;;;;;;8260481;28;20098;-82
2022/10/02 14:00:42;;;;;;;0.68;0.50;;;20.00;99.90;;;;;;8250513;28;20073;-81
2022/10/02 14:05:00;;;;;;;0.47;0.47;;;20.30;99.90;;;;;;8251388;28;20026;-81
2022/10/02 14:09:33;;;;;;;0.50;0.50;;;19.80;99.90;;;;;;8258128;28;20525;-81
2022/10/02 14:14:15;;;;;;;1.92;0.50;;;19.40;99.90;;;;;;8253343;28;20494;-82
2022/10/02 14:18:37;;;;;;;;;;;18.90;99.90;;;;;;8230299;28;20046;-83
2022/10/02 14:23:04;;;;;;;1.90;1.35;;;18.30;99.90;;;;;;8262847;28;19914;-82
2022/10/02 14:27:35;;;;;;;1.63;0.80;;;17.40;99.90;;;;;;8267869;28;20030;-83
2022/10/02 14:32:02;;;;;;;1.90;0.73;;;17.00;99.90;;;;;;8260644;28;20628;-83
2022/10/02 14:36:25;;;;;;;2.97;0.50;;;16.70;99.90;;;;;;8265158;28;20018;-82
2022/10/02 14:40:52;;;;;;;1.67;0.93;;;16.50;99.90;;;;;;8266296;28;20063;-81
2022/10/02 14:45:05;;;;;;;1.67;0.60;;;16.30;99.90;;;;;;8265388;28;20025;-83
2022/10/02 14:49:38;;;;;;;3.20;0.80;;;16.20;99.90;;;;;;8255942;28;20023;-83
2022/10/02 14:54:14;;;;;;;1.70;0.80;;;16.20;99.90;;;;;;8222210;28;20030;-83
2022/10/02 14:58:29;;;;;;;1.45;0.85;;;16.20;99.90;;;;;;8230908;28;20124;-83
2022/10/02 15:02:47;;;;;;;2.58;1.00;;;16.10;99.90;;;;;;8259334;28;20412;-83
2022/10/02 15:07:08;;;;;;;1.63;1.00;;;15.90;99.90;;;;;;8265497;28;20032;-82
2022/10/02 15:11:21;;;;;;;1.30;0.70;;;15.90;99.90;;;;;;8266462;28;20118;-82
2022/10/02 15:20:29;;;;;;;1.15;0.57;;;15.40;99.90;;;;;;8249598;28;20560;-83
2022/10/02 15:24:43;;;;;;;0.52;0.32;;;14.80;99.90;;;;;;8257013;28;20495;-84
2022/10/02 15:28:52;;;;;;;6.18;0.93;;;14.60;99.90;;;;;;8252711;28;20037;-83
2022/10/02 15:33:29;;;;;;;14.48;0.90;;;14.50;99.90;;;;;;8259532;28;20482;-84
2022/10/02 15:37:57;;;;;;;6.55;0.63;;;14.50;99.90;;;;;;8257359;28;20030;-83
2022/10/02 15:42:05;;;;;;;0.63;0.50;;;14.50;99.90;;;;;;8258618;28;20105;-84
2022/10/02 15:46:22;;;;;;;0.40;0.40;;;14.50;99.90;;;;;;8264747;28;20031;-84
2022/10/02 15:50:34;;;;;;;2.15;0.32;;;14.00;99.90;;;;;;8252645;28;20061;-84
2022/10/02 15:54:49;;;;;;;1.10;0.70;;;13.90;99.90;;;;;;8261299;28;20498;-86
2022/10/02 15:59:05;;;;;;;0.90;0.40;;;13.70;99.90;;;;;;8261121;28;20037;-85
2022/10/02 16:03:17;;;;;;;1.83;0.60;;;13.50;99.90;;;;;;8275351;28;20023;-86
2022/10/02 16:07:34;;;;;;;0.93;0.80;;;13.50;99.90;;;;;;8268615;28;20025;-86
2022/10/02 16:11:45;;;;;;;0.60;0.40;;;13.40;99.90;;;;;;8268058;28;20129;-86
2022/10/02 16:15:53;;;;;;;1.77;0.50;;;13.40;99.90;;;;;;8263348;28;20148;-84
2022/10/02 16:20:02;;;;;;;1.42;0.70;;;13.40;99.90;;;;;;8278346;28;20034;-85
2022/10/02 16:24:15;;;;;;;2.28;0.50;;;13.40;99.90;;;;;;8263293;28;20490;-85
2022/10/02 16:28:47;;;;;;;2.03;0.60;;;13.30;99.90;;;;;;8257799;28;20026;-87
2022/10/02 16:33:19;;;;;;;0.60;0.60;;;13.40;99.90;;;;;;8251570;28;20398;-86
2022/10/02 16:37:28;;;;;;;0.85;0.60;;;13.30;99.90;;;;;;8212926;28;20038;-87
2022/10/02 16:41:40;;;;;;;0.75;0.60;;;13.40;99.90;;;;;;8248722;28;20098;-87
2022/10/02 16:45:58;;;;;;;0.50;0.50;;;13.50;99.90;;;;;;8263825;28;20045;-85
2022/10/02 16:50:13;;;;;;;0.77;0.60;;;13.50;99.90;;;;;;8256750;28;20499;-85
2022/10/02 16:54:34;;;;;;;0.80;0.60;;;13.60;99.90;;;;;;8259501;28;20026;-84
2022/10/02 16:58:54;;;;;;;1.00;0.80;;;13.40;99.90;;;;;;8252052;28;20026;-84
2022/10/02 17:03:30;;;;;;;0.60;0.50;;;13.40;99.90;;;;;;8251532;28;20030;-84
2022/10/02 17:08:00;;;;;;;0.40;0.40;;;13.40;99.90;;;;;;8249276;28;20023;-81
2022/10/02 17:12:45;;;;;;;3.28;0.35;;;13.30;99.90;;;;;;8247498;28;20037;-83
2022/10/02 17:16:51;;;;;;;1.15;0.40;;;13.40;99.90;;;;;;8167423;29;20403;-82
2022/10/02 17:21:10;;;;;;;0.63;0.50;;;13.40;99.90;;;;;;8206014;28;20042;-82
2022/10/02 17:25:28;;;;;;;0.47;0.40;;;13.30;99.90;;;;;;8260419;28;20204;-83
2022/10/02 17:29:45;;;;;;;0.82;0.45;;;13.10;99.90;;;;;;8247830;28;20050;-83
2022/10/02 17:33:53;;;;;;;1.48;0.90;;;13.00;99.90;;;;;;8260171;28;20112;-82
2022/10/02 17:38:34;;;;;;;1.73;1.63;;;12.90;99.90;;;;;;8248049;28;20031;-82
2022/10/02 17:43:01;;;;;;;2.50;2.05;;;13.10;99.90;;;;;;8254631;28;20034;-82
2022/10/02 17:47:30;;;;;;;2.15;1.92;;;13.10;99.90;;;;;;8252858;28;20038;-82
2022/10/02 17:51:46;;;;;;;2.80;2.28;;;12.90;99.90;;;;;;8253748;28;20022;-82
2022/10/02 18:00:27;;;;;;;2.05;1.40;;;13.00;99.90;;;;;;8254279;28;20042;-83
2022/10/02 18:04:46;;;;;;;2.03;1.60;;;13.30;99.90;;;;;;8256379;28;20014;-82
2022/10/02 18:09:05;;;;;;;2.30;1.48;;;13.10;99.90;;;;;;8247069;28;20121;-83
2022/10/02 18:13:38;;;;;;;4.85;2.05;;;13.00;99.90;;;;;;8256946;28;20026;-82
2022/10/02 18:18:07;;;;;;;2.88;2.13;;;13.00;99.90;;;;;;8258349;28;20066;-82
2022/10/02 18:22:10;;;;;;;6.28;2.55;;;12.90;99.90;;;;;;8260483;28;20092;-83
2022/10/02 18:26:29;;;;;;;4.68;3.38;;;13.00;99.90;;;;;;8253790;28;20041;-82
2022/10/02 18:30:38;;;;;;;3.47;2.00;;;13.00;99.90;;;;;;8246124;28;20027;-82
2022/10/02 18:34:54;;;;;;;2.13;1.92;;;13.30;99.90;;;;;;8259116;28;20041;-82
2022/10/02 18:39:11;;;;;;;2.10;1.90;;;13.40;99.90;;;;;;8260925;28;20026;-82
2022/10/02 18:43:18;;;;;;;1.73;1.25;;;13.10;99.90;;;;;;8248035;28;20232;-85
2022/10/02 18:47:48;;;;;;;5.18;1.10;;;13.10;99.90;;;;;;8254036;28;20034;-85
2022/10/02 18:52:26;;;;;;;7.07;1.10;;;13.00;99.90;;;;;;8255632;28;20015;-85
2022/10/02 18:56:50;;;;;;;7.72;2.60;;;12.80;99.90;;;;;;8254645;28;20080;-86
2022/10/02 19:01:11;;;;;;;1.48;1.27;;;12.70;99.90;;;;;;8260293;28;20032;-86
2022/10/02 19:05:18;;;;;;;1.13;0.60;;;12.80;99.90;;;;;;8256140;28;20736;-86
2022/10/02 19:09:26;;;;;;;1.38;0.60;;;12.90;99.90;;;;;;8267722;28;20034;-86
2022/10/02 19:13:28;;;;;;;0.50;0.50;;;12.90;99.90;;;;;;8258679;28;20152;-86
2022/10/02 19:17:29;;;;;;;0.52;0.38;;;12.70;99.90;;;;;;8266336;28;20041;-87
2022/10/02 19:21:34;;;;;;;0.68;0.32;;;12.70;99.90;;;;;;8264542;28;20030;-86
2022/10/02 19:25:35;;;;;;;1.20;0.40;;;12.60;99.90;;;;;;8263617;28;20510;-86
2022/10/02 19:29:42;;;;;;;2.00;0.35;;;12.60;99.90;;;;;;8263135;28;20022;-86
2022/10/02 19:34:01;;;;;;;0.50;0.25;;;12.50;99.90;;;;;;8255553;28;20030;-84
2022/10/02 19:38:28;;;;;;;0.73;0.73;;;12.50;99.90;;;;;;8256424;28;20033;-85
2022/10/02 19:42:38;;;;;;;0.93;0.40;;;12.40;99.90;;;;;;8252471;28;20423;-86
2022/10/02 19:46:42;;;;;;;2.97;0.60;;;12.30;99.90;;;;;;8247294;28;20038;-84
2022/10/02 19:50:53;;;;;;;0.60;0.60;;;12.20;99.90;;;;;;8262939;28;20811;-84
2022/10/02 19:54:54;;;;;;;1.98;0.90;;;12.40;99.90;;;;;;8258871;28;20033;-85
2022/10/02 19:59:06;;;;;;;5.13;1.10;;;12.40;99.90;;;;;;8256358;28;20102;-84
2022/10/02 20:03:16;;;;;;;2.08;1.05;;;12.40;99.90;;;;;;8263713;28;20092;-85
2022/10/02 20:07:21;;;;;;;10.18;1.30;;;12.20;99.90;;;;;;8248104;28;20023;-85
2022/10/02 20:11:49;;;;;;;4.03;1.50;;;12.10;99.90;;;;;;8248973;28;20166;-86
2022/10/02 20:20:17;;;;;;;5.07;1.65;;;12.20;99.90;;;;;;8252643;28;20097;-85
2022/10/02 20:24:55;;;;;;;1.52;1.35;;;12.10;99.90;;;;;;8255797;28;20022;-85
2022/10/02 20:29:01;;;;;;;2.47;1.42;;;12.00;99.90;;;;;;8257502;28;20034;-85
2022/10/02 20:33:23;;;;;;;2.83;1.17;;;11.90;99.90;;;;;;8263345;28;20439;-84
2022/10/02 20:37:28;;;;;;;2.42;1.40;;;11.80;99.90;;;;;;8261544;28;20486;-84
2022/10/02 20:42:12;;;;;;;4.32;1.40;;;11.80;99.90;;;;;;8257193;28;20037;-84
2022/10/02 20:46:40;;;;;;;3.22;1.38;;;11.70;99.90;;;;;;8171786;28;20030;-85
2022/10/02 20:50:55;;;;;;;1.95;1.50;;;11.70;99.90;;;;;;8257722;28;20027;-84
2022/10/02 20:55:09;;;;;;;3.22;1.90;;;11.70;99.90;;;;;;8263591;28;20116;-85
2022/10/02 20:59:55;;;;;;;1.88;1.55;;;11.90;99.90;;;;;;8261293;28;20483;-84
2022/10/02 21:04:29;;;;;;;3.60;1.10;;;11.90;99.90;;;;;;8260664;28;20020;-84
2022/10/02 21:08:36;;;;;;;2.00;1.17;;;12.00;99.90;;;;;;8262805;28;20026;-84
2022/10/02 21:13:25;;;;;;;2.00;1.40;;;12.10;99.90;;;;;;8262016;28;20023;-84
2022/10/02 21:17:44;;;;;;;2.75;1.23;;;11.90;99.90;;;;;;8260796;28;20034;-85
2022/10/02 21:21:54;;;;;;;1.70;1.08;;;11.90;99.90;;;;;;8258631;28;20029;-84
2022/10/02 21:26:17;;;;;;;5.90;1.42;;;11.90;99.90;;;;;;8261098;28;20018;-84
2022/10/02 21:30:19;;;;;;;2.15;1.52;;;11.90;99.90;;;;;;8261772;28;20034;-84
2022/10/02 21:34:19;;;;;;;1.60;1.50;;;12.30;99.90;;;;;;8253850;28;20128;-83
2022/10/02 21:38:32;;;;;;;2.00;1.50;;;12.60;99.90;;;;;;8259879;28;20106;-83
2022/10/02 21:42:53;;;;;;;1.35;1.15;;;12.20;99.90;;;;;;8249457;28;20027;-83
2022/10/02 21:47:03;;;;;;;1.90;1.20;;;12.50;99.90;;;;;;8260736;28;20101;-84
2022/10/02 21:51:30;;;;;;;3.40;1.00;;;12.30;99.90;;;;;;8254020;28;20100;-84
2022/10/02 21:56:08;;;;;;;3.10;1.13;;;12.10;99.90;;;;;;8253233;28;20030;-83
2022/10/02 22:00:20;;;;;;;2.05;1.35;;;12.00;99.90;;;;;;8257821;28;20066;-83
2022/10/02 22:04:33;;;;;;;2.83;1.70;;;11.90;99.90;;;;;;8251318;28;20022;-83
2022/10/02 22:08:47;;;;;;;3.33;1.90;;;11.90;99.90;;;;;;8254033;28;20607;-83
2022/10/02 22:13:35;;;;;;;3.25;1.90;;;11.90;99.90;;;;;;8253283;28;20021;-82
2022/10/02 22:18:00;;;;;;;3.25;2.00;;;11.90;99.90;;;;;;8246111;28;20034;-83
2022/10/02 22:22:06;;;;;;;1.92;1.63;;;12.00;99.90;;;;;;8253304;28;20106;-83
2022/10/02 22:26:38;;;;;;;3.42;2.17;;;12.00;99.90;;;;;;8257423;28;20021;-83
2022/10/02 22:30:53;;;;;;;2.35;2.13;;;12.30;99.90;;;;;;8252682;28;20031;-83
2022/10/02 22:35:19;;;;;;;2.17;1.98;;;12.50;99.90;;;;;;8262858;28;20606;-82
2022/10/02 22:39:23;;;;;;;1.98;1.77;;;12.50;99.90;;;;;;8258347;28;20084;-82
2022/10/02 22:43:31;;;;;;;2.40;1.90;;;12.40;99.90;;;;;;8253639;28;20538;-83
2022/10/02 22:47:49;;;;;;;2.15;1.95;;;12.30;99.90;;;;;;8259115;28;20022;-82
2022/10/02 22:52:01;;;;;;;2.28;1.95;;;12.30;99.90;;;;;;8265971;28;20026;-82